Time;durP1;ratioP1;P1;durP2;ratioP2;P2;SDS_P1;SDS_P2;PMS_P1;PMS_P2;Temp;Humidity;BMP_temperature;BMP_pressure;BME280_temperature;BME280_humidity;BME280_pressure;Samples;Min_cycle;Max_cycle;Signal;HPM_P1;HPM_P2
2023/12/12 00:01:41;;;;;;;;;;;15.70;99.90;;;;;;5092104;28;20374;-82
2023/12/12 00:04:08;;;;;;;;;;;15.70;99.90;;;;;;5093087;28;20003;-81
2023/12/12 00:06:36;;;;;;;;;;;15.70;99.90;;;;;;5074289;28;22596;-81
2023/12/12 00:09:02;;;;;;;;;;;15.70;99.90;;;;;;5074738;28;19939;-82
2023/12/12 00:11:28;;;;;;;;;;;15.70;99.90;;;;;;5093024;28;19912;-82
2023/12/12 00:13:54;;;;;;;;;;;15.60;99.90;;;;;;5074555;28;19915;-82
2023/12/12 00:16:20;;;;;;;;;;;15.60;99.90;;;;;;5074554;28;19927;-82
2023/12/12 00:18:45;;;;;;;;;;;15.60;99.90;;;;;;5093090;28;19932;-82
2023/12/12 00:21:11;;;;;;;;;;;15.50;99.90;;;;;;5101596;28;19908;-82
2023/12/12 00:23:37;;;;;;;;;;;15.40;99.90;;;;;;5113381;28;19908;-82
2023/12/12 00:26:03;;;;;;;;;;;15.40;99.90;;;;;;5094575;28;19939;-82
2023/12/12 00:28:29;;;;;;;;;;;15.40;99.90;;;;;;5113117;28;19908;-82
2023/12/12 00:31:00;;;;;;;;;;;15.50;99.90;;;;;;5112600;28;19920;-82
2023/12/12 00:33:26;;;;;;;;;;;15.50;99.90;;;;;;5100815;28;19995;-83
2023/12/12 00:35:52;;;;;;;;;;;15.50;99.90;;;;;;5092105;28;19923;-83
2023/12/12 00:38:17;;;;;;;;;;;15.50;99.90;;;;;;5074207;28;19924;-82
2023/12/12 00:40:53;;;;;;;;;;;15.40;99.90;;;;;;5074110;28;19955;-82
2023/12/12 00:43:19;;;;;;;;;;;15.50;99.90;;;;;;5074028;28;20311;-82
2023/12/12 00:45:45;;;;;;;;;;;15.50;99.90;;;;;;5074226;28;19908;-82
2023/12/12 00:48:11;;;;;;;;;;;15.50;99.90;;;;;;5074566;28;19939;-82
2023/12/12 00:50:37;;;;;;;;;;;15.50;99.90;;;;;;5096581;28;19908;-83
2023/12/12 00:53:02;;;;;;;;;;;15.60;99.90;;;;;;5112671;28;19986;-82
2023/12/12 00:55:28;;;;;;;;;;;15.50;99.90;;;;;;5112517;28;20027;-82
2023/12/12 00:57:54;;;;;;;;;;;15.50;99.90;;;;;;5112585;28;19934;-83
2023/12/12 01:00:20;;;;;;;;;;;15.50;99.90;;;;;;5112459;28;19931;-82
2023/12/12 01:02:46;;;;;;;;;;;15.40;99.90;;;;;;5087270;28;20301;-81
2023/12/12 01:05:12;;;;;;;;;;;15.40;99.90;;;;;;5073753;28;19960;-83
2023/12/12 01:07:37;;;;;;;;;;;15.40;99.90;;;;;;5073538;28;20370;-83
2023/12/12 01:10:04;;;;;;;;;;;15.50;99.90;;;;;;5092507;28;20283;-83
2023/12/12 01:12:30;;;;;;;;;;;15.50;99.90;;;;;;5073734;28;19908;-82
2023/12/12 01:14:58;;;;;;;;;;;15.40;99.90;;;;;;5073541;28;19912;-83
2023/12/12 01:17:25;;;;;;;;;;;15.50;99.90;;;;;;5093679;28;20442;-83
2023/12/12 01:19:51;;;;;;;;;;;15.50;99.90;;;;;;5092236;28;19951;-83
2023/12/12 01:22:17;;;;;;;;;;;15.50;99.90;;;;;;5109918;28;19915;-83
2023/12/12 01:24:42;;;;;;;;;;;15.50;99.90;;;;;;5114090;28;19908;-82
2023/12/12 01:27:11;;;;;;;;;;;15.60;99.90;;;;;;5112589;28;20048;-82
2023/12/12 01:29:37;;;;;;;;;;;15.60;99.90;;;;;;5093943;28;19908;-83
2023/12/12 01:32:03;;;;;;;;;;;15.60;99.90;;;;;;5111392;28;19923;-83
2023/12/12 01:34:29;;;;;;;;;;;15.60;99.90;;;;;;5091911;28;19908;-83
2023/12/12 01:36:55;;;;;;;;;;;15.60;99.90;;;;;;5091574;28;20228;-83
2023/12/12 01:39:21;;;;;;;;;;;15.60;99.90;;;;;;5092060;28;19908;-82
2023/12/12 01:41:49;;;;;;;;;;;15.70;99.90;;;;;;5073622;28;19943;-83
2023/12/12 01:44:15;;;;;;;;;;;15.70;99.90;;;;;;5073298;28;19908;-82
2023/12/12 01:46:43;;;;;;;;;;;15.70;99.90;;;;;;5091563;28;19915;-82
2023/12/12 01:49:09;;;;;;;;;;;15.70;99.90;;;;;;5091683;28;20283;-80
2023/12/12 01:51:35;;;;;;;;;;;15.70;99.90;;;;;;5103669;28;19915;-82
2023/12/12 01:54:02;;;;;;;;;;;15.60;99.90;;;;;;5093477;28;20375;-82
2023/12/12 01:56:28;;;;;;;;;;;15.50;99.90;;;;;;5112054;28;20023;-82
2023/12/12 01:58:54;;;;;;;;;;;15.60;99.90;;;;;;5097281;28;19956;-81
2023/12/12 02:01:20;;;;;;;;;;;15.50;99.90;;;;;;5115925;28;20002;-83
2023/12/12 02:03:47;;;;;;;;;;;15.50;99.90;;;;;;5100395;28;19916;-81
2023/12/12 02:06:15;;;;;;;;;;;15.50;99.90;;;;;;5095166;28;20419;-82
2023/12/12 02:08:42;;;;;;;;;;;15.40;99.90;;;;;;5076841;28;19915;-81
2023/12/12 02:11:08;;;;;;;;;;;15.40;99.90;;;;;;5076873;28;19947;-82
2023/12/12 02:13:34;;;;;;;;;;;15.40;99.90;;;;;;5095351;28;19955;-81
2023/12/12 02:16:00;;;;;;;;;;;15.40;99.90;;;;;;5095163;28;19912;-83
2023/12/12 02:18:25;;;;;;;;;;;15.40;99.90;;;;;;5095101;28;20288;-82
2023/12/12 02:20:51;;;;;;;;;;;15.30;99.90;;;;;;5083115;28;19925;-83
2023/12/12 02:23:17;;;;;;;;;;;15.30;99.90;;;;;;5115234;28;19908;-81
2023/12/12 02:25:43;;;;;;;;;;;15.30;99.90;;;;;;5115608;28;19908;-82
2023/12/12 02:28:10;;;;;;;;;;;15.30;99.90;;;;;;5097012;28;19908;-83
2023/12/12 02:30:36;;;;;;;;;;;15.30;99.90;;;;;;5096815;28;19916;-83
2023/12/12 02:33:02;;;;;;;;;;;15.30;99.90;;;;;;5087851;28;19908;-83
2023/12/12 02:35:29;;;;;;;;;;;15.30;99.90;;;;;;5095849;28;20030;-82
2023/12/12 02:37:55;;;;;;;;;;;15.30;99.90;;;;;;5094822;28;19919;-83
2023/12/12 02:40:20;;;;;;;;;;;15.30;99.90;;;;;;5095046;28;20017;-83
2023/12/12 02:42:48;;;;;;;;;;;15.20;99.90;;;;;;5076388;28;19908;-83
2023/12/12 02:45:14;;;;;;;;;;;15.20;99.90;;;;;;5094965;28;19908;-83
2023/12/12 02:47:40;;;;;;;;;;;15.20;99.90;;;;;;5095092;28;19908;-83
2023/12/12 02:50:06;;;;;;;;;;;15.20;99.90;;;;;;5076231;28;19963;-83
2023/12/12 02:52:32;;;;;;;;;;;15.20;99.90;;;;;;5114752;28;19907;-83
2023/12/12 02:54:59;;;;;;;;;;;15.20;99.90;;;;;;5115089;28;19908;-81
2023/12/12 02:57:24;;;;;;;;;;;15.30;99.90;;;;;;5096313;28;19916;-82
2023/12/12 02:59:50;;;;;;;;;;;15.20;99.90;;;;;;5096443;28;19930;-82
2023/12/12 03:02:16;;;;;;;;;;;15.20;99.90;;;;;;5112161;28;20378;-81
2023/12/12 03:04:43;;;;;;;;;;;15.10;99.90;;;;;;5094367;28;19908;-82
2023/12/12 03:07:09;;;;;;;;;;;15.10;99.90;;;;;;5075486;28;19920;-82
2023/12/12 03:09:34;;;;;;;;;;;15.10;99.90;;;;;;5093129;28;19912;-82
2023/12/12 03:12:00;;;;;;;;;;;15.00;99.90;;;;;;5075417;28;19908;-82
2023/12/12 03:14:28;;;;;;;;;;;15.00;99.90;;;;;;5093783;28;19916;-82
2023/12/12 03:16:54;;;;;;;;;;;15.00;99.90;;;;;;5093990;28;19954;-82
2023/12/12 03:19:19;;;;;;;;;;;15.00;99.90;;;;;;5094067;28;19930;-82
2023/12/12 03:21:45;;;;;;;;;;;15.00;99.90;;;;;;5108378;28;19929;-83
2023/12/12 03:24:11;;;;;;;;;;;15.00;99.90;;;;;;5096568;28;19907;-82
2023/12/12 03:26:37;;;;;;;;;;;15.00;99.90;;;;;;5114418;28;19919;-83
2023/12/12 03:29:03;;;;;;;;;;;15.00;99.90;;;;;;5095716;28;20017;-83
2023/12/12 03:31:28;;;;;;;;;;;15.00;99.90;;;;;;5093270;28;19972;-82
2023/12/12 03:33:54;;;;;;;;;;;15.00;99.90;;;;;;5097697;28;20313;-82
2023/12/12 03:36:20;;;;;;;;;;;14.90;99.90;;;;;;5093952;28;19984;-82
2023/12/12 03:38:46;;;;;;;;;;;14.90;99.90;;;;;;5093553;28;19931;-82
2023/12/12 03:41:12;;;;;;;;;;;14.90;99.90;;;;;;5093450;28;19908;-81
2023/12/12 03:43:38;;;;;;;;;;;14.90;99.90;;;;;;5093388;28;19915;-83
2023/12/12 03:46:04;;;;;;;;;;;15.00;99.90;;;;;;5075644;28;19907;-82
2023/12/12 03:48:30;;;;;;;;;;;15.00;99.90;;;;;;5093866;28;19916;-82
2023/12/12 03:50:56;;;;;;;;;;;15.00;99.90;;;;;;5098762;28;19907;-83
2023/12/12 03:53:23;;;;;;;;;;;15.00;99.90;;;;;;5095225;28;19919;-83
2023/12/12 03:55:48;;;;;;;;;;;15.00;99.90;;;;;;5095405;28;19916;-82
2023/12/12 03:58:14;;;;;;;;;;;15.00;99.90;;;;;;5114234;28;19908;-83
2023/12/12 04:00:40;;;;;;;;;;;15.00;99.90;;;;;;5095837;28;19919;-83
2023/12/12 04:03:06;;;;;;;;;;;15.00;99.90;;;;;;5086521;28;20364;-83
2023/12/12 04:05:32;;;;;;;;;;;15.10;99.90;;;;;;5093827;28;19908;-83
2023/12/12 04:07:57;;;;;;;;;;;15.10;99.90;;;;;;5077067;28;19912;-82
2023/12/12 04:10:23;;;;;;;;;;;15.10;99.90;;;;;;5075754;28;20280;-83
2023/12/12 04:12:49;;;;;;;;;;;15.10;99.90;;;;;;5094272;28;19973;-83
2023/12/12 04:15:15;;;;;;;;;;;15.20;99.90;;;;;;5093777;28;19965;-79
2023/12/12 04:17:42;;;;;;;;;;;15.10;99.90;;;;;;5094180;28;19912;-83
2023/12/12 04:20:09;;;;;;;;;;;15.10;99.90;;;;;;5094126;28;19908;-81
2023/12/12 04:22:35;;;;;;;;;;;15.00;99.90;;;;;;5112876;28;19908;-83
2023/12/12 04:25:01;;;;;;;;;;;15.10;99.90;;;;;;5114485;28;19913;-82
2023/12/12 04:27:27;;;;;;;;;;;15.00;99.90;;;;;;5114355;28;20040;-82
2023/12/12 04:29:53;;;;;;;;;;;15.00;99.90;;;;;;5114381;28;19930;-83
2023/12/12 04:32:18;;;;;;;;;;;15.00;99.90;;;;;;5092982;28;19993;-83
2023/12/12 04:34:45;;;;;;;;;;;15.00;99.90;;;;;;5114399;28;19915;-83
2023/12/12 04:37:11;;;;;;;;;;;15.00;99.90;;;;;;5095256;28;19916;-82
2023/12/12 04:39:37;;;;;;;;;;;15.00;99.90;;;;;;5113528;28;19914;-82
2023/12/12 04:42:04;;;;;;;;;;;15.00;99.90;;;;;;5113946;28;19908;-81
2023/12/12 04:44:30;;;;;;;;;;;15.00;99.90;;;;;;5095367;28;19987;-82
2023/12/12 04:46:56;;;;;;;;;;;15.00;99.90;;;;;;5113924;28;20277;-81
2023/12/12 04:49:21;;;;;;;;;;;14.90;99.90;;;;;;5114205;28;19914;-83
2023/12/12 04:51:47;;;;;;;;;;;14.90;99.90;;;;;;5113504;28;19908;-80
2023/12/12 04:54:14;;;;;;;;;;;15.00;99.90;;;;;;5112715;28;20334;-82
2023/12/12 04:56:43;;;;;;;;;;;14.90;99.90;;;;;;5111852;28;19923;-80
2023/12/12 04:59:08;;;;;;;;;;;15.00;99.90;;;;;;5114028;28;19954;-83
2023/12/12 05:01:34;;;;;;;;;;;15.00;99.90;;;;;;5095298;28;19907;-80
2023/12/12 05:04:00;;;;;;;;;;;14.90;99.90;;;;;;5120579;27;19912;-83
2023/12/12 05:06:26;;;;;;;;;;;14.90;99.90;;;;;;5094417;28;20020;-82
2023/12/12 05:08:52;;;;;;;;;;;14.90;99.90;;;;;;5113480;28;20235;-82
2023/12/12 05:11:18;;;;;;;;;;;14.90;99.90;;;;;;5112727;28;19911;-82
2023/12/12 05:13:45;;;;;;;;;;;14.90;99.90;;;;;;5102688;28;19912;-82
2023/12/12 05:16:11;;;;;;;;;;;14.90;99.90;;;;;;5129606;27;20031;-81
2023/12/12 05:18:37;;;;;;;;;;;14.80;99.90;;;;;;5114461;28;19916;-82
2023/12/12 05:21:04;;;;;;;;;;;14.90;99.90;;;;;;5114386;28;19907;-78
2023/12/12 05:23:30;;;;;;;;;;;14.90;99.90;;;;;;5114021;28;19908;-83
2023/12/12 05:25:55;;;;;;;;;;;14.90;99.90;;;;;;5114785;28;19915;-82
2023/12/12 05:28:21;;;;;;;;;;;15.00;99.90;;;;;;5114606;28;19954;-83
2023/12/12 05:30:47;;;;;;;;;;;14.90;99.90;;;;;;5113948;28;19923;-83
2023/12/12 05:33:13;;;;;;;;;;;15.00;99.90;;;;;;5095393;28;20395;-82
2023/12/12 05:35:39;;;;;;;;;;;15.00;99.90;;;;;;5114581;28;19916;-82
2023/12/12 05:38:06;;;;;;;;;;;15.10;99.90;;;;;;5113848;28;19984;-82
2023/12/12 05:40:32;;;;;;;;;;;15.10;99.90;;;;;;5114061;28;19907;-82
2023/12/12 05:42:58;;;;;;;;;;;15.10;99.90;;;;;;5114307;28;19908;-83
2023/12/12 05:45:24;;;;;;;;;;;15.10;99.90;;;;;;5114084;28;19907;-83
2023/12/12 05:47:50;;;;;;;;;;;15.10;99.90;;;;;;5113925;28;19950;-83
2023/12/12 05:50:16;;;;;;;;;;;15.20;99.90;;;;;;5114097;28;19908;-84
2023/12/12 05:52:42;;;;;;;;;;;15.10;99.90;;;;;;5095555;28;20264;-83
2023/12/12 05:55:08;;;;;;;;;;;15.10;99.90;;;;;;5114370;28;19912;-84
2023/12/12 05:57:35;;;;;;;;;;;15.10;99.90;;;;;;5114178;28;19920;-82
2023/12/12 06:00:01;;;;;;;;;;;15.10;99.90;;;;;;5116181;28;19908;-82
2023/12/12 06:02:27;;;;;;;;;;;15.10;99.90;;;;;;5096971;28;20264;-78
2023/12/12 06:04:53;;;;;;;;;;;15.10;99.90;;;;;;5114031;28;19915;-74
2023/12/12 06:07:19;;;;;;;;;;;15.20;99.90;;;;;;5113583;28;19912;-82
2023/12/12 06:09:45;;;;;;;;;;;15.20;99.90;;;;;;5092603;28;20325;-82
2023/12/12 06:12:11;;;;;;;;;;;15.20;99.90;;;;;;5113347;28;20032;-83
2023/12/12 06:14:40;;;;;;;;;;;15.20;99.90;;;;;;5113171;28;19957;-78
2023/12/12 06:17:06;;;;;;;;;;;15.20;99.90;;;;;;5113238;28;20380;-82
2023/12/12 06:19:32;;;;;;;;;;;15.20;99.90;;;;;;5113443;28;19914;-81
2023/12/12 06:21:58;;;;;;;;;;;15.20;99.90;;;;;;5113387;28;19908;-83
2023/12/12 06:24:24;;;;;;;;;;;15.30;99.90;;;;;;5113730;28;19909;-83
2023/12/12 06:26:50;;;;;;;;;;;15.30;99.90;;;;;;5113034;28;19984;-83
2023/12/12 06:29:15;;;;;;;;;;;15.30;99.90;;;;;;5094347;28;19912;-84
2023/12/12 06:31:41;;;;;;;;;;;15.30;99.90;;;;;;5113861;28;19920;-84
2023/12/12 06:34:10;;;;;;;;;;;15.30;99.90;;;;;;5094813;28;19961;-82
2023/12/12 06:36:37;;;;;;;;;;;15.40;99.90;;;;;;5113282;28;19957;-84
2023/12/12 06:39:03;;;;;;;;;;;15.40;99.90;;;;;;5114311;28;19908;-86
2023/12/12 06:41:29;;;;;;;;;;;15.50;99.90;;;;;;5129206;28;19935;-83
2023/12/12 06:43:55;;;;;;;;;;;15.60;99.90;;;;;;5096226;28;20308;-81
2023/12/12 06:46:20;;;;;;;;;;;15.60;99.90;;;;;;5117593;28;19914;-85
2023/12/12 06:48:49;;;;;;;;;;;15.70;99.90;;;;;;5099185;28;19912;-83
2023/12/12 06:51:15;;;;;;;;;;;15.70;99.90;;;;;;5097141;28;19908;-79
2023/12/12 06:53:41;;;;;;;;;;;15.70;99.90;;;;;;5096593;28;19920;-81
2023/12/12 06:56:09;;;;;;;;;;;15.70;99.90;;;;;;5114479;28;19991;-81
2023/12/12 06:58:35;;;;;;;;;;;15.70;99.90;;;;;;5095948;28;20010;-80
2023/12/12 07:01:00;;;;;;;;;;;15.80;99.90;;;;;;5097105;28;20305;-84
2023/12/12 07:03:26;;;;;;;;;;;15.90;99.90;;;;;;5115764;28;19962;-87
2023/12/12 07:05:52;;;;;;;;;;;15.90;99.90;;;;;;5116358;28;19915;-85
2023/12/12 07:08:18;;;;;;;;;;;15.90;99.90;;;;;;5098317;28;20056;-90
2023/12/12 07:10:45;;;;;;;;;;;16.00;99.90;;;;;;5098415;28;20272;-84
2023/12/12 07:13:11;;;;;;;;;;;16.10;99.90;;;;;;5098529;28;19952;-83
2023/12/12 07:15:38;;;;;;;;;;;16.10;99.90;;;;;;5116861;28;19914;-89
2023/12/12 07:18:08;;;;;;;;;;;16.10;99.90;;;;;;5098525;28;19918;-87
2023/12/12 07:20:33;;;;;;;;;;;16.20;99.90;;;;;;5097180;28;19908;-84
2023/12/12 07:22:59;;;;;;;;;;;16.30;99.90;;;;;;5116347;28;20240;-81
2023/12/12 07:25:25;;;;;;;;;;;16.40;99.90;;;;;;5097642;28;19914;-85
2023/12/12 07:27:51;;;;;;;;;;;16.50;99.90;;;;;;5099923;28;19931;-87
2023/12/12 07:30:17;;;;;;;;;;;16.50;99.90;;;;;;5115911;28;19916;-87
2023/12/12 07:32:44;;;;;;;;;;;16.60;99.90;;;;;;5097986;28;19912;-85
2023/12/12 07:35:10;;;;;;;;;;;16.50;99.90;;;;;;5097624;28;20006;-85
2023/12/12 07:37:35;;;;;;;;;;;16.60;99.90;;;;;;5115335;28;20019;-86
2023/12/12 07:40:04;;;;;;;;;;;16.60;99.90;;;;;;5115805;28;19908;-86
2023/12/12 07:42:30;;;;;;;;;;;16.60;99.90;;;;;;5115903;28;19927;-86
2023/12/12 07:44:56;;;;;;;;;;;16.60;99.90;;;;;;5097485;28;20245;-87
2023/12/12 07:47:22;;;;;;;;;;;16.70;99.90;;;;;;5097242;28;19912;-86
2023/12/12 07:49:48;;;;;;;;;;;16.80;99.90;;;;;;5115931;28;20248;-85
2023/12/12 07:52:13;;;;;;;;;;;16.80;99.90;;;;;;5115259;28;19951;-85
2023/12/12 07:54:39;;;;;;;;;;;16.80;99.90;;;;;;5096831;28;20339;-86
2023/12/12 07:57:05;;;;;;;;;;;16.90;99.90;;;;;;5115142;28;19915;-84
2023/12/12 07:59:31;;;;;;;;;;;16.90;99.90;;;;;;5097151;28;19956;-87
2023/12/12 08:01:57;;;;;;;;;;;16.90;99.90;;;;;;5097340;28;20036;-86
2023/12/12 08:04:23;;;;;;;;;;;16.90;99.90;;;;;;5097707;28;19915;-86
2023/12/12 08:06:49;;;;;;;;;;;17.00;99.90;;;;;;5115528;28;19912;-86
2023/12/12 08:09:15;;;;;;;;;;;17.10;99.90;;;;;;5096067;28;19912;-85
2023/12/12 08:11:41;;;;;;;;;;;17.20;99.90;;;;;;5114989;28;20247;-86
2023/12/12 08:14:07;;;;;;;;;;;17.30;99.90;;;;;;5091907;28;20309;-86
2023/12/12 08:16:32;;;;;;;;;;;17.40;99.90;;;;;;5097292;28;19916;-88
2023/12/12 08:18:58;;;;;;;;;;;17.50;99.90;;;;;;5116741;28;19908;-87
2023/12/12 08:21:24;;;;;;;;;;;17.60;99.90;;;;;;5117490;28;20281;-86
2023/12/12 08:23:50;;;;;;;;;;;17.70;99.90;;;;;;5098385;28;19908;-85
2023/12/12 08:26:16;;;;;;;;;;;17.80;99.90;;;;;;5097635;28;19957;-85
2023/12/12 08:28:41;;;;;;;;;;;17.80;99.90;;;;;;5097293;28;19916;-86
2023/12/12 08:31:07;;;;;;;;;;;17.70;99.90;;;;;;5114560;28;19920;-85
2023/12/12 08:33:33;;;;;;;;;;;17.70;99.90;;;;;;5114045;28;19908;-81
2023/12/12 08:35:59;;;;;;;;;;;17.80;99.90;;;;;;5113622;28;19916;-84
2023/12/12 08:38:25;;;;;;;;;;;17.90;99.90;;;;;;5095443;28;19965;-84
2023/12/12 08:40:52;;;;;;;;;;;18.00;99.90;;;;;;5095105;28;19912;-80
2023/12/12 08:43:18;;;;;;;;;;;18.00;99.90;;;;;;5092712;28;20002;-86
2023/12/12 08:45:44;;;;;;;;;;;18.00;99.90;;;;;;5129390;27;19947;-86
2023/12/12 08:48:10;;;;;;;;;;;18.10;99.90;;;;;;5094923;28;19911;-82
2023/12/12 08:50:36;;;;;;;;;;;18.20;99.90;;;;;;5111412;28;20391;-84
2023/12/12 08:53:03;;;;;;;;;;;18.40;99.90;;;;;;5093416;28;19941;-84
2023/12/12 08:55:29;;;;;;;;;;;18.40;99.90;;;;;;5094925;28;19950;-85
2023/12/12 08:57:55;;;;;;;;;;;18.50;99.90;;;;;;5094496;28;19912;-85
2023/12/12 09:00:21;;;;;;;;;;;18.50;99.90;;;;;;5113442;28;20018;-84
2023/12/12 09:02:47;;;;;;;;;;;18.70;99.90;;;;;;5113452;28;19908;-84
2023/12/12 09:05:13;;;;;;;;;;;18.70;99.90;;;;;;5099773;28;19919;-83
2023/12/12 09:07:40;;;;;;;;;;;18.70;99.90;;;;;;5094418;28;19912;-84
2023/12/12 09:10:06;;;;;;;;;;;18.50;99.90;;;;;;5094955;28;19908;-83
2023/12/12 09:12:32;;;;;;;;;;;18.50;99.90;;;;;;5113242;28;19925;-85
2023/12/12 09:14:58;;;;;;;;;;;18.60;99.90;;;;;;5114680;28;19919;-89
2023/12/12 09:17:24;;;;;;;;;;;18.60;99.90;;;;;;5115644;28;19916;-87
2023/12/12 09:19:50;;;;;;;;;;;18.70;99.90;;;;;;5115078;28;19912;-83
2023/12/12 09:22:16;;;;;;;;;;;18.70;99.90;;;;;;5116110;28;19912;-83
2023/12/12 09:24:42;;;;;;;;;;;18.70;99.90;;;;;;5113734;28;19907;-84
2023/12/12 09:27:08;;;;;;;;;;;18.70;99.90;;;;;;5095542;28;20252;-85
2023/12/12 09:29:33;;;;;;;;;;;18.70;99.90;;;;;;5112963;28;19908;-84
2023/12/12 09:32:00;;;;;;;;;;;18.70;99.90;;;;;;5094331;28;19992;-84
2023/12/12 09:34:26;;;;;;;;;;;18.60;99.90;;;;;;5114586;28;19918;-84
2023/12/12 09:36:52;;;;;;;;;;;18.70;99.90;;;;;;5114917;28;19916;-82
2023/12/12 09:39:18;;;;;;;;;;;18.70;99.90;;;;;;5096489;28;19908;-84
2023/12/12 09:41:49;;;;;;;;;;;18.70;99.90;;;;;;5095526;28;19927;-84
2023/12/12 09:44:19;;;;;;;;;;;18.70;99.90;;;;;;5094441;28;20010;-83
2023/12/12 09:46:48;;;;;;;;;;;18.70;99.90;;;;;;5112912;28;20054;-84
2023/12/12 09:49:14;;;;;;;;;;;18.70;99.90;;;;;;5112748;28;20045;-82
2023/12/12 09:51:43;;;;;;;;;;;18.70;99.90;;;;;;5112503;28;19912;-83
2023/12/12 09:54:14;;;;;;;;;;;18.80;99.90;;;;;;5095081;28;19907;-86
2023/12/12 09:56:40;;;;;;;;;;;18.70;99.90;;;;;;5113708;28;19920;-84
2023/12/12 09:59:06;;;;;;;;;;;18.50;99.90;;;;;;5095829;28;19907;-85
2023/12/12 10:01:35;;;;;;;;;;;18.60;99.90;;;;;;5116147;28;20008;-84
2023/12/12 10:04:04;;;;;;;;;;;18.60;99.90;;;;;;5114545;28;20043;-83
2023/12/12 10:06:34;;;;;;;;;;;18.70;99.90;;;;;;5114403;28;19920;-83
2023/12/12 10:09:00;;;;;;;;;;;18.50;99.90;;;;;;5114506;28;19912;-84
2023/12/12 10:11:26;;;;;;;;;;;18.40;99.90;;;;;;5094802;28;19980;-84
2023/12/12 10:13:56;;;;;;;;;;;18.50;99.90;;;;;;5112741;28;19908;-83
2023/12/12 10:16:23;;;;;;;;;;;18.70;99.90;;;;;;5094343;28;19923;-83
2023/12/12 10:18:50;;;;;;;;;;;18.80;99.90;;;;;;5115254;28;19930;-82
2023/12/12 10:21:17;;;;;;;;;;;18.80;99.90;;;;;;5098052;28;19915;-83
2023/12/12 10:23:44;;;;;;;;;;;18.60;99.90;;;;;;5116325;28;20018;-83
2023/12/12 10:26:10;;;;;;;;;;;18.60;99.90;;;;;;5116555;28;19981;-82
2023/12/12 10:28:36;;;;;;;;;;;18.60;99.90;;;;;;5116198;28;20436;-82
2023/12/12 10:31:02;;;;;;;;;;;18.70;99.90;;;;;;5097400;28;20425;-82
2023/12/12 10:33:28;;;;;;;;;;;18.70;99.90;;;;;;5116334;28;19915;-83
2023/12/12 10:35:54;;;;;;;;;;;18.90;99.90;;;;;;5097691;28;19923;-83
2023/12/12 10:38:28;;;;;;;;;;;18.90;99.90;;;;;;5116438;28;19916;-83
2023/12/12 10:40:54;;;;;;;;;;;19.00;99.90;;;;;;5097735;28;19999;-85
2023/12/12 10:43:20;;;;;;;;;;;18.80;99.90;;;;;;5116174;28;19954;-81
2023/12/12 10:45:47;;;;;;;;;;;18.70;99.90;;;;;;5080620;28;19919;-84
2023/12/12 10:48:17;;;;;;;;;;;18.60;99.90;;;;;;5097161;28;19930;-83
2023/12/12 10:50:46;;;;;;;;;;;18.50;99.90;;;;;;5097724;28;20271;-83
2023/12/12 10:53:12;;;;;;;;;;;18.50;99.90;;;;;;5116023;28;19908;-82
2023/12/12 10:55:39;;;;;;;;;;;18.40;99.90;;;;;;5097180;28;19915;-82
2023/12/12 10:58:05;;;;;;;;;;;18.40;99.90;;;;;;5117153;28;19942;-84
2023/12/12 11:00:32;;;;;;;;;;;18.30;99.90;;;;;;5097909;28;19919;-83
2023/12/12 11:02:58;;;;;;;;;;;18.30;99.90;;;;;;5115809;28;19919;-84
2023/12/12 11:05:24;;;;;;;;;;;18.20;99.90;;;;;;5097531;28;19907;-84
2023/12/12 11:07:51;;;;;;;;;;;18.10;99.90;;;;;;5096605;28;20059;-82
2023/12/12 11:10:18;;;;;;;;;;;17.90;99.90;;;;;;5115016;28;19930;-83
2023/12/12 11:12:56;;;;;;;;;;;18.00;99.90;;;;;;5114953;28;20010;-83
2023/12/12 11:15:23;;;;;;;;;;;18.00;99.90;;;;;;5114834;28;19912;-83
2023/12/12 11:17:50;;;;;;;;;;;18.10;99.90;;;;;;5114814;28;19915;-83
2023/12/12 11:20:17;;;;;;;;;;;18.20;99.90;;;;;;5114039;28;19908;-84
2023/12/12 11:22:50;;;;;;;;;;;18.10;99.90;;;;;;5095845;28;19908;-85
2023/12/12 11:25:19;;;;;;;;;;;18.10;99.90;;;;;;5096727;28;19912;-83
2023/12/12 11:27:47;;;;;;;;;;;18.00;99.90;;;;;;5115033;28;19962;-83
2023/12/12 11:30:13;;;;;;;;;;;18.00;99.90;;;;;;5093771;28;19908;-82
2023/12/12 11:32:41;;;;;;;;;;;18.00;99.90;;;;;;5089280;28;20403;-83
2023/12/12 11:35:25;;;;;;;;;;;18.30;99.90;;;;;;5084101;28;20010;-84
2023/12/12 11:37:52;;;;;;;;;;;18.50;99.90;;;;;;5114546;28;20009;-84
2023/12/12 11:40:18;;;;;;;;;;;18.70;99.90;;;;;;5097167;28;19908;-84
2023/12/12 11:42:45;;;;;;;;;;;18.90;99.90;;;;;;5114799;28;19915;-83
2023/12/12 11:45:10;;;;;;;;;;;19.10;99.90;;;;;;5114773;28;19912;-83
2023/12/12 11:47:36;;;;;;;;;;;19.40;99.90;;;;;;5095955;28;19914;-83
2023/12/12 11:50:12;;;;;;;;;;;19.60;99.90;;;;;;5098017;28;19962;-83
2023/12/12 11:52:38;;;;;;;;;;;19.70;99.90;;;;;;5077292;28;20272;-83
2023/12/12 11:55:04;;;;;;;;;;;19.90;99.90;;;;;;5078819;28;19954;-82
2023/12/12 11:57:30;;;;;;;;;;;20.00;99.90;;;;;;5094659;28;20336;-81
2023/12/12 11:59:59;;;;;;;;;;;20.20;99.90;;;;;;5094462;28;19941;-84
2023/12/12 12:02:28;;;;;;;;;;;20.30;99.90;;;;;;5097729;28;19953;-83
2023/12/12 12:04:53;;;;;;;;;;;20.40;99.90;;;;;;5114629;28;19954;-83
2023/12/12 12:07:19;;;;;;;;;;;20.40;99.90;;;;;;5113706;28;19911;-84
2023/12/12 12:09:47;;;;;;;;;;;20.10;99.90;;;;;;5095483;28;19953;-82
2023/12/12 12:12:13;;;;;;;;;;;20.10;99.90;;;;;;5095254;28;20336;-84
2023/12/12 12:14:39;;;;;;;;;;;20.00;99.90;;;;;;5095209;28;19908;-84
2023/12/12 12:17:05;;;;;;;;;;;19.90;99.90;;;;;;5095496;28;20353;-84
2023/12/12 12:19:32;;;;;;;;;;;19.90;99.90;;;;;;5114083;28;19907;-83
2023/12/12 12:22:11;;;;;;;;;;;19.70;99.90;;;;;;5094322;28;19935;-85
2023/12/12 12:24:46;;;;;;;;;;;19.50;99.90;;;;;;5113915;28;20356;-82
2023/12/12 12:27:12;;;;;;;;;;;19.40;99.90;;;;;;5114427;28;19931;-85
2023/12/12 12:29:38;;;;;;;;;;;19.40;99.90;;;;;;5097457;28;19915;-84
2023/12/12 12:32:16;;;;;;;;;;;19.40;99.90;;;;;;5078622;28;19920;-83
2023/12/12 12:34:43;;;;;;;;;;;19.40;99.90;;;;;;5076179;28;20003;-84
2023/12/12 12:37:27;;;;;;;;;;;19.50;99.90;;;;;;5094100;28;20011;-86
2023/12/12 12:39:53;;;;;;;;;;;19.70;99.90;;;;;;5094361;28;20415;-84
2023/12/12 12:42:19;;;;;;;;;;;19.80;99.90;;;;;;5093762;28;19945;-86
2023/12/12 12:44:45;;;;;;;;;;;19.90;99.90;;;;;;5075612;28;19920;-79
2023/12/12 12:47:11;;;;;;;;;;;20.10;99.90;;;;;;5093417;28;19908;-82
2023/12/12 12:49:37;;;;;;;;;;;20.20;99.90;;;;;;5093229;28;20222;-81
2023/12/12 12:52:03;;;;;;;;;;;20.40;99.90;;;;;;5091466;28;19954;-81
2023/12/12 12:54:29;;;;;;;;;;;20.50;99.90;;;;;;5093208;28;20372;-83
2023/12/12 12:56:55;;;;;;;;;;;20.70;99.90;;;;;;5093270;28;19961;-82
2023/12/12 12:59:21;;;;;;;;;;;20.90;99.90;;;;;;5093218;28;19919;-79
2023/12/12 13:01:47;;;;;;;;;;;21.10;99.90;;;;;;5092799;28;20236;-78
2023/12/12 13:04:13;;;;;;;;;;;21.10;99.90;;;;;;5093374;28;19908;-81
2023/12/12 13:06:39;;;;;;;;;;;21.20;99.90;;;;;;5093619;28;19915;-81
2023/12/12 13:09:17;;;;;;;;;;;21.20;99.90;;;;;;5093408;28;19908;-81
2023/12/12 13:11:43;;;;;;;;;;;20.80;99.90;;;;;;5093697;28;19908;-81
2023/12/12 13:14:09;;;;;;;;;;;20.70;99.90;;;;;;5093600;28;19934;-81
2023/12/12 13:16:35;;;;;;;;;;;20.60;99.90;;;;;;5093507;28;19916;-78
2023/12/12 13:19:01;;;;;;;;;;;20.60;99.90;;;;;;5093871;28;19908;-79
2023/12/12 13:21:27;;;;;;;;;;;20.60;99.90;;;;;;5093707;28;19965;-80
2023/12/12 13:23:54;;;;;;;;;;;20.70;99.90;;;;;;5093546;28;20326;-80
2023/12/12 13:26:22;;;;;;;;;;;20.80;99.90;;;;;;5093852;28;19934;-78
2023/12/12 13:28:51;;;;;;;;;;;20.70;99.90;;;;;;5075368;28;19908;-81
2023/12/12 13:31:17;;;;;;;;;;;20.40;99.90;;;;;;5104796;28;20268;-77
2023/12/12 13:33:43;;;;;;;;;;;20.40;99.90;;;;;;5110829;28;20335;-80
2023/12/12 13:36:09;;;;;;;;;;;20.30;99.90;;;;;;5095260;28;19911;-79
2023/12/12 13:38:35;;;;;;;;;;;20.40;99.90;;;;;;5113411;28;19924;-80
2023/12/12 13:41:00;;;;;;;;;;;20.40;99.90;;;;;;5113692;28;19916;-79
2023/12/12 13:43:26;;;;;;;;;;;20.30;99.90;;;;;;5095401;28;19990;-80
2023/12/12 13:45:52;;;;;;;;;;;20.30;99.90;;;;;;5113528;28;19908;-80
2023/12/12 13:48:18;;;;;;;;;;;20.10;99.90;;;;;;5095358;28;19915;-77
2023/12/12 13:50:44;;;;;;;;;;;20.00;99.90;;;;;;5113560;28;19943;-81
2023/12/12 13:53:10;;;;;;;;;;;20.10;99.90;;;;;;5096454;28;19951;-79
2023/12/12 13:55:36;;;;;;;;;;;20.00;99.90;;;;;;5118110;28;19908;-80
2023/12/12 13:58:02;;;;;;;;;;;19.70;99.90;;;;;;5117866;28;19919;-79
2023/12/12 14:00:28;;;;;;;;;;;19.80;99.90;;;;;;5118130;28;19914;-79
2023/12/12 14:02:59;;;;;;;;;;;19.90;99.90;;;;;;5098915;28;19920;-80
2023/12/12 14:05:25;;;;;;;;;;;19.90;99.90;;;;;;5117192;28;19915;-81
2023/12/12 14:07:55;;;;;;;;;;;19.80;99.90;;;;;;5116969;28;19976;-75
2023/12/12 14:10:22;;;;;;;;;;;19.70;99.90;;;;;;5114392;28;19989;-75
2023/12/12 14:12:48;;;;;;;;;;;19.80;99.90;;;;;;5116431;28;20324;-80